Great — TCYV6 — position and weather

sailwx.info

Track history (hours):
 
Tides and Currents Weather Stations Pressure Air Temp Water Temp Dewpoint Dewpoint Depression Visibility Wind Speed Wind Dir Waves Ship Positions

Great

Last reported at 2014-Jul-21 23:05 UTC. Time now 2014-Jul-22 09:18 UTC.
Position N 39°58' E 000°02'.

Length 187 m; draft 10.8 m.

Type: Cargo ship. MMSI: 271042241.

Date/timePositionNaut miles runAvg speedWind from/ knotsBaromVisibWave heightAir tempDewpointWater temp
2014-Jul-21 23:05N 39°58' E 000°02'0 0.0
2014-Jul-21 22:30N 39°58' E 000°02'0 0.0
2014-Jul-20 21:17N 39°58' E 000°02'0 0.1
2014-Jul-20 20:31N 39°58' E 000°02'1 0.1
2014-Jul-19 22:30N 39°58' E 000°03'0 0.0
2014-Jul-19 21:25N 39°58' E 000°03'0 0.1
2014-Jul-19 20:25N 39°58' E 000°03'0 0.0
2014-Jul-19 13:22N 39°58' E 000°03'0 0.0
2014-Jul-19 12:21N 39°58' E 000°03'0 0.0
2014-Jul-19 09:20N 39°58' E 000°03'0 0.0
2014-Jul-19 00:25N 39°58' E 000°03'0 0.0
2014-Jul-18 23:31N 39°58' E 000°03'0 0.0
2014-Jul-17 14:11N 39°58' E 000°04'26 5.5
2014-Jul-17 09:33N 39°46' E 000°33'1210.1
2014-Jul-17 08:19N 39°41' E 000°48'3910.4
2014-Jul-17 04:33N 39°29' E 001°36'1310.9
2014-Jul-17 03:24N 39°24' E 001°52'910.4
2014-Jul-17 02:32N 39°21' E 002°03'1110.3
2014-Jul-17 01:28N 39°17' E 002°16'1110.3
2014-Jul-17 00:27N 39°13' E 002°28'910.5
2014-Jul-16 23:33N 39°09' E 002°39'1110.9
2014-Jul-16 22:34N 39°06' E 002°52'1010.3
2014-Jul-16 21:33N 39°04' E 003°05'1110.6
2014-Jul-16 20:33N 39°03' E 003°19'2110.6
2014-Jul-16 18:32N 39°00' E 003°46'  
2014-Jul-12 18:29N 36°24' E 023°12'39 9.9
2014-Jul-12 14:33N 36°28' E 024°00'1010.2
2014-Jul-12 13:33N 36°30' E 024°13'1110.7
2014-Jul-12 12:33N 36°30' E 024°26'1110.7
2014-Jul-12 11:33N 36°31' E 024°39'1111.0
2014-Jul-12 10:32N 36°32' E 024°53'1111.2
2014-Jul-12 09:33N 36°33' E 025°07'1111.0
2014-Jul-12 08:31N 36°34' E 025°21'1010.6
2014-Jul-12 07:33N 36°38' E 025°33'1110.6
2014-Jul-12 06:33N 36°42' E 025°45'1110.7
2014-Jul-12 05:33N 36°47' E 025°57'1210.6
2014-Jul-12 04:26N 36°51' E 026°11'  
Track history (hours):
 
Tides and Currents Weather Stations Pressure Air Temp Water Temp Dewpoint Dewpoint Depression Visibility Wind Speed Wind Dir Waves Ship Positions

Great

Last reported at 2014-Jul-21 23:05 UTC. Time now 2014-Jul-22 09:18 UTC.
Position N 39°58' E 000°02'.

Length 187 m; draft 10.8 m.

Type: Cargo ship. MMSI: 271042241.

Date/timePositionNaut miles runAvg speedWind from/ knotsBaromVisibWave heightAir tempDewpointWater temp
2014-Jul-21 23:05N 39°58' E 000°02'0 0.0
2014-Jul-21 22:30N 39°58' E 000°02'0 0.0
2014-Jul-20 21:17N 39°58' E 000°02'0 0.1
2014-Jul-20 20:31N 39°58' E 000°02'1 0.1
2014-Jul-19 22:30N 39°58' E 000°03'0 0.0
2014-Jul-19 21:25N 39°58' E 000°03'0 0.1
2014-Jul-19 20:25N 39°58' E 000°03'0 0.0
2014-Jul-19 13:22N 39°58' E 000°03'0 0.0
2014-Jul-19 12:21N 39°58' E 000°03'0 0.0
2014-Jul-19 09:20N 39°58' E 000°03'0 0.0
2014-Jul-19 00:25N 39°58' E 000°03'0 0.0
2014-Jul-18 23:31N 39°58' E 000°03'0 0.0
2014-Jul-17 14:11N 39°58' E 000°04'26 5.5
2014-Jul-17 09:33N 39°46' E 000°33'1210.1
2014-Jul-17 08:19N 39°41' E 000°48'3910.4
2014-Jul-17 04:33N 39°29' E 001°36'1310.9
2014-Jul-17 03:24N 39°24' E 001°52'910.4
2014-Jul-17 02:32N 39°21' E 002°03'1110.3
2014-Jul-17 01:28N 39°17' E 002°16'1110.3
2014-Jul-17 00:27N 39°13' E 002°28'910.5
2014-Jul-16 23:33N 39°09' E 002°39'1110.9
2014-Jul-16 22:34N 39°06' E 002°52'1010.3
2014-Jul-16 21:33N 39°04' E 003°05'1110.6
2014-Jul-16 20:33N 39°03' E 003°19'2110.6
2014-Jul-16 18:32N 39°00' E 003°46'  
2014-Jul-12 18:29N 36°24' E 023°12'39 9.9
2014-Jul-12 14:33N 36°28' E 024°00'1010.2
2014-Jul-12 13:33N 36°30' E 024°13'1110.7
2014-Jul-12 12:33N 36°30' E 024°26'1110.7
2014-Jul-12 11:33N 36°31' E 024°39'1111.0
2014-Jul-12 10:32N 36°32' E 024°53'1111.2
2014-Jul-12 09:33N 36°33' E 025°07'1111.0
2014-Jul-12 08:31N 36°34' E 025°21'1010.6
2014-Jul-12 07:33N 36°38' E 025°33'1110.6
2014-Jul-12 06:33N 36°42' E 025°45'1110.7
2014-Jul-12 05:33N 36°47' E 025°57'1210.6
2014-Jul-12 04:26N 36°51' E 026°11'  

Dump ship's entire track history